createdAt,value
2023-05-06T00:00:19.000Z,0
2023-05-06T00:01:35.000Z,0
2023-05-06T00:02:52.112Z,0
2023-05-06T00:04:08.000Z,0
2023-05-06T00:05:24.000Z,0
2023-05-06T00:06:40.000Z,0
2023-05-06T00:07:56.000Z,0
2023-05-06T00:09:13.000Z,0
2023-05-06T00:10:29.000Z,0
2023-05-06T00:11:44.000Z,0
2023-05-06T00:13:00.000Z,0
2023-05-06T00:14:16.000Z,0
2023-05-06T00:15:33.000Z,0
2023-05-06T00:16:49.000Z,0
2023-05-06T00:18:05.000Z,0
2023-05-06T00:19:21.000Z,0
2023-05-06T00:20:37.000Z,0
2023-05-06T00:21:54.000Z,0
2023-05-06T00:23:10.000Z,0
2023-05-06T00:24:26.000Z,0
2023-05-06T00:25:42.000Z,0
2023-05-06T00:26:58.000Z,0
2023-05-06T00:28:14.000Z,0
2023-05-06T00:29:30.000Z,0
2023-05-06T00:30:46.000Z,0
2023-05-06T00:32:02.000Z,0
2023-05-06T00:33:18.000Z,0
2023-05-06T00:34:35.000Z,0
2023-05-06T00:35:51.000Z,0
2023-05-06T00:37:07.000Z,0
2023-05-06T00:38:23.000Z,0
2023-05-06T00:39:39.000Z,0
2023-05-06T00:40:56.000Z,0
2023-05-06T00:42:12.000Z,0
2023-05-06T00:43:28.000Z,0
2023-05-06T00:44:43.000Z,0
2023-05-06T00:45:59.000Z,0
2023-05-06T00:47:16.000Z,0
2023-05-06T00:48:32.000Z,0
2023-05-06T00:49:48.000Z,0
2023-05-06T00:51:04.000Z,0
2023-05-06T00:52:20.000Z,0
2023-05-06T00:53:37.000Z,0
2023-05-06T00:54:53.000Z,0
2023-05-06T00:56:09.000Z,0
2023-05-06T00:57:25.000Z,0
2023-05-06T00:58:41.000Z,0
2023-05-06T00:59:57.000Z,0
2023-05-06T01:01:13.000Z,0
2023-05-06T01:02:29.000Z,0
2023-05-06T01:03:45.000Z,0
2023-05-06T01:05:01.000Z,0
2023-05-06T01:06:17.000Z,0
2023-05-06T01:07:34.000Z,0
2023-05-06T01:08:50.000Z,0
2023-05-06T01:10:06.000Z,0
2023-05-06T01:11:22.000Z,0
2023-05-06T01:12:38.000Z,0
2023-05-06T01:13:55.000Z,0
2023-05-06T01:15:11.000Z,0
2023-05-06T01:16:27.000Z,0
2023-05-06T01:17:42.000Z,0
2023-05-06T01:18:58.000Z,0
2023-05-06T01:20:15.000Z,0
2023-05-06T01:21:31.000Z,0
2023-05-06T01:22:47.000Z,0
2023-05-06T01:24:03.000Z,0
2023-05-06T01:25:19.000Z,0
2023-05-06T01:26:36.000Z,0
2023-05-06T01:27:52.000Z,0
2023-05-06T01:29:08.000Z,0
2023-05-06T01:30:24.000Z,0
2023-05-06T01:31:40.844Z,0
2023-05-06T01:32:57.000Z,0
2023-05-06T01:34:12.000Z,0
2023-05-06T01:35:28.000Z,0
2023-05-06T01:36:44.000Z,0
2023-05-06T01:38:00.000Z,0
2023-05-06T01:39:17.000Z,0
2023-05-06T01:40:33.000Z,0
2023-05-06T01:41:49.000Z,0
2023-05-06T01:43:05.000Z,0
2023-05-06T01:44:21.000Z,0
2023-05-06T01:45:38.000Z,0
2023-05-06T01:46:54.000Z,0
2023-05-06T01:48:10.000Z,0
2023-05-06T01:49:26.000Z,0
2023-05-06T01:50:41.000Z,0
2023-05-06T01:51:58.000Z,0
2023-05-06T01:53:14.000Z,0
2023-05-06T01:54:30.000Z,0
2023-05-06T01:55:46.000Z,0
2023-05-06T01:57:02.000Z,0
2023-05-06T01:58:19.000Z,0
2023-05-06T01:59:35.000Z,0
2023-05-06T02:00:51.000Z,0
2023-05-06T02:02:07.000Z,0
2023-05-06T02:03:23.000Z,0
2023-05-06T02:04:40.000Z,0
2023-05-06T02:05:56.000Z,0
2023-05-06T02:07:11.000Z,0
2023-05-06T02:08:27.000Z,0
2023-05-06T02:09:43.000Z,0
2023-05-06T02:10:59.000Z,0
2023-05-06T02:12:16.000Z,0
2023-05-06T02:13:32.000Z,0
2023-05-06T02:14:48.000Z,0
2023-05-06T02:16:04.000Z,0
2023-05-06T02:17:20.000Z,0
2023-05-06T02:18:37.000Z,0
2023-05-06T02:19:53.000Z,0
2023-05-06T02:21:09.000Z,0
2023-05-06T02:22:25.000Z,0
2023-05-06T02:23:40.000Z,0
2023-05-06T02:24:57.000Z,0
2023-05-06T02:26:13.000Z,0
2023-05-06T02:27:29.000Z,0
2023-05-06T02:28:45.000Z,0
2023-05-06T02:30:01.000Z,0
2023-05-06T02:31:18.000Z,0
2023-05-06T02:32:34.000Z,0
2023-05-06T02:33:50.000Z,0
2023-05-06T02:35:06.000Z,0
2023-05-06T02:36:22.000Z,0
2023-05-06T02:37:39.000Z,0
2023-05-06T02:38:55.000Z,0
2023-05-06T02:40:10.000Z,0
2023-05-06T02:41:26.000Z,0
2023-05-06T02:42:42.000Z,0
2023-05-06T02:43:59.000Z,0
2023-05-06T02:45:15.000Z,0
2023-05-06T02:46:31.000Z,0
2023-05-06T02:47:46.000Z,0
2023-05-06T02:49:02.000Z,0
2023-05-06T02:50:19.000Z,0
2023-05-06T02:51:35.000Z,0
2023-05-06T02:52:51.000Z,0
2023-05-06T02:54:07.000Z,0
2023-05-06T02:55:23.000Z,0
2023-05-06T02:56:40.000Z,0
2023-05-06T02:57:56.000Z,0
2023-05-06T02:59:12.000Z,0
2023-05-06T03:00:28.000Z,0
2023-05-06T03:01:44.000Z,0
2023-05-06T03:03:01.000Z,0
2023-05-06T03:04:16.000Z,0
2023-05-06T03:05:32.000Z,0
2023-05-06T03:06:48.000Z,0
2023-05-06T03:08:04.000Z,0
2023-05-06T03:09:21.000Z,0
2023-05-06T03:10:37.000Z,0
2023-05-06T03:11:53.000Z,0
2023-05-06T03:13:09.000Z,0
2023-05-06T03:14:25.000Z,0
2023-05-06T03:15:42.000Z,0
2023-05-06T03:16:58.000Z,0
2023-05-06T03:18:14.000Z,0
2023-05-06T03:19:30.000Z,0
2023-05-06T03:20:45.000Z,0
2023-05-06T03:22:02.000Z,4
2023-05-06T03:23:18.000Z,4
2023-05-06T03:24:34.000Z,4
2023-05-06T03:25:50.564Z,4
2023-05-06T03:27:06.000Z,8
2023-05-06T03:28:22.000Z,4
2023-05-06T03:29:39.000Z,8
2023-05-06T03:30:55.000Z,8
2023-05-06T03:32:11.000Z,12
2023-05-06T03:33:27.000Z,12
2023-05-06T03:34:43.000Z,16
2023-05-06T03:36:00.000Z,16
2023-05-06T03:37:15.000Z,20
2023-05-06T03:38:31.000Z,24
2023-05-06T03:39:47.000Z,28
2023-05-06T03:41:03.000Z,32
2023-05-06T03:42:20.000Z,36
2023-05-06T03:43:36.000Z,40
2023-05-06T03:44:52.000Z,48
2023-05-06T03:46:08.000Z,48
2023-05-06T03:47:24.000Z,56
2023-05-06T03:48:41.000Z,64
2023-05-06T03:49:57.000Z,72
2023-05-06T03:51:13.000Z,84
2023-05-06T03:52:29.000Z,96
2023-05-06T03:53:44.000Z,112
2023-05-06T03:55:01.000Z,132
2023-05-06T03:56:17.000Z,152
2023-05-06T03:57:33.000Z,156
2023-05-06T03:58:49.000Z,164
2023-05-06T04:00:05.000Z,176
2023-05-06T04:01:22.000Z,180
2023-05-06T04:02:38.000Z,192
2023-05-06T04:03:54.000Z,208
2023-05-06T04:05:10.000Z,220
2023-05-06T04:06:26.000Z,232
2023-05-06T04:07:43.000Z,252
2023-05-06T04:08:59.000Z,268
2023-05-06T04:10:14.000Z,284
2023-05-06T04:11:30.000Z,288
2023-05-06T04:12:46.000Z,300
2023-05-06T04:14:03.000Z,304
2023-05-06T04:15:19.000Z,300
2023-05-06T04:16:35.408Z,320
2023-05-06T04:17:51.000Z,348
2023-05-06T04:19:07.000Z,376
2023-05-06T04:20:24.000Z,404
2023-05-06T04:21:40.000Z,440
2023-05-06T04:22:56.000Z,476
2023-05-06T04:24:12.000Z,504
2023-05-06T04:25:28.000Z,540
2023-05-06T04:26:44.000Z,568
2023-05-06T04:28:00.000Z,592
2023-05-06T04:29:16.388Z,612
2023-05-06T04:30:32.000Z,628
2023-05-06T04:31:48.000Z,680
2023-05-06T04:33:05.000Z,712
2023-05-06T04:34:21.000Z,740
2023-05-06T04:35:37.000Z,768
2023-05-06T04:36:53.000Z,776
2023-05-06T04:38:09.000Z,820
2023-05-06T04:39:25.000Z,840
2023-05-06T04:40:42.000Z,908
2023-05-06T04:41:58.000Z,928
2023-05-06T04:43:13.000Z,928
2023-05-06T04:44:29.000Z,948
2023-05-06T04:45:45.000Z,984
2023-05-06T04:47:02.000Z,1012
2023-05-06T04:48:18.000Z,1040
2023-05-06T04:49:34.000Z,1084
2023-05-06T04:50:50.000Z,1112
2023-05-06T04:52:06.000Z,1164
2023-05-06T04:53:23.000Z,1200
2023-05-06T04:54:39.000Z,1316
2023-05-06T04:55:55.000Z,1360
2023-05-06T04:57:11.000Z,1332
2023-05-06T04:58:27.000Z,1356
2023-05-06T04:59:43.000Z,1464
2023-05-06T05:00:59.000Z,1496
2023-05-06T05:02:15.000Z,1544
2023-05-06T05:03:31.000Z,1556
2023-05-06T05:04:47.000Z,1476
2023-05-06T05:06:04.000Z,1520
2023-05-06T05:07:20.000Z,1528
2023-05-06T05:08:36.000Z,1512
2023-05-06T05:09:52.000Z,1568
2023-05-06T05:11:08.000Z,1648
2023-05-06T05:12:25.000Z,1848
2023-05-06T05:13:41.000Z,1956
2023-05-06T05:14:57.000Z,1952
2023-05-06T05:16:12.000Z,1908
2023-05-06T05:17:28.000Z,1928
2023-05-06T05:18:45.000Z,2032
2023-05-06T05:20:01.000Z,2048
2023-05-06T05:21:17.000Z,1904
2023-05-06T05:22:33.000Z,1960
2023-05-06T05:23:49.000Z,2004
2023-05-06T05:25:06.000Z,2136
2023-05-06T05:26:22.000Z,2308
2023-05-06T05:27:38.000Z,2284
2023-05-06T05:28:54.000Z,2432
2023-05-06T05:30:10.819Z,2444
2023-05-06T05:31:27.000Z,2296
2023-05-06T05:32:42.000Z,2276
2023-05-06T05:33:58.000Z,2240
2023-05-06T05:35:14.000Z,2140
2023-05-06T05:36:30.000Z,2160
2023-05-06T05:37:47.000Z,2164
2023-05-06T05:39:03.000Z,2164
2023-05-06T05:40:19.000Z,2232
2023-05-06T05:41:35.000Z,2324
2023-05-06T05:42:51.000Z,2412
2023-05-06T05:44:08.000Z,2560
2023-05-06T05:45:24.000Z,2584
2023-05-06T05:46:40.000Z,2624
2023-05-06T05:47:56.000Z,2560
2023-05-06T05:49:11.000Z,2324
2023-05-06T05:50:28.000Z,2312
2023-05-06T05:51:44.000Z,2460
2023-05-06T05:53:00.000Z,2476
2023-05-06T05:54:16.000Z,2636
2023-05-06T05:55:32.000Z,2572
2023-05-06T05:56:49.000Z,2624
2023-05-06T05:59:21.000Z,2632
2023-05-06T06:00:37.000Z,3044
2023-05-06T06:01:53.000Z,3316
2023-05-06T06:03:09.000Z,3340
2023-05-06T06:04:26.000Z,3280
2023-05-06T06:05:41.000Z,3404
2023-05-06T06:06:57.000Z,3292
2023-05-06T06:08:13.000Z,3216
2023-05-06T06:09:29.000Z,3228
2023-05-06T06:10:46.110Z,3344
2023-05-06T06:12:02.000Z,3336
2023-05-06T06:13:18.000Z,3548
2023-05-06T06:14:34.000Z,3748
2023-05-06T06:15:50.000Z,4168
2023-05-06T06:17:07.000Z,3896
2023-05-06T06:18:23.000Z,3884
2023-05-06T06:19:39.000Z,3960
2023-05-06T06:20:55.000Z,4512
2023-05-06T06:22:10.000Z,4552
2023-05-06T06:23:27.000Z,5188
2023-05-06T06:24:43.000Z,5312
2023-05-06T06:25:59.000Z,4776
2023-05-06T06:27:15.000Z,4500
2023-05-06T06:28:31.000Z,4004
2023-05-06T06:29:48.000Z,4136
2023-05-06T06:31:04.000Z,3116
2023-05-06T06:32:20.000Z,4776
2023-05-06T06:33:36.000Z,4896
2023-05-06T06:34:52.000Z,4576
2023-05-06T06:36:09.039Z,4732
2023-05-06T06:37:25.000Z,4436
2023-05-06T06:38:40.000Z,4196
2023-05-06T06:39:56.000Z,4384
2023-05-06T06:41:12.000Z,4484
2023-05-06T06:42:29.000Z,4560
2023-05-06T06:43:45.000Z,4500
2023-05-06T06:45:01.000Z,4876
2023-05-06T06:46:17.000Z,5336
2023-05-06T06:47:33.000Z,5136
2023-05-06T06:48:50.001Z,4324
2023-05-06T06:50:06.000Z,4672
2023-05-06T06:51:22.000Z,4616
2023-05-06T06:52:38.000Z,4856
2023-05-06T06:53:54.000Z,4800
2023-05-06T06:55:10.000Z,5032
2023-05-06T06:56:26.000Z,5176
2023-05-06T06:57:42.400Z,4972
2023-05-06T06:58:58.000Z,5284
2023-05-06T07:00:14.000Z,5800
2023-05-06T07:01:31.000Z,5108
2023-05-06T07:02:46.000Z,4660
2023-05-06T07:04:02.000Z,4652
2023-05-06T07:05:18.000Z,4256
2023-05-06T07:06:34.000Z,4396
2023-05-06T07:07:51.000Z,4524
2023-05-06T07:09:07.000Z,4284
2023-05-06T07:10:23.000Z,4540
2023-05-06T07:11:39.000Z,4488
2023-05-06T07:12:55.000Z,4696
2023-05-06T07:14:12.000Z,4628
2023-05-06T07:15:28.000Z,4544
2023-05-06T07:16:44.000Z,5108
2023-05-06T07:18:00.000Z,4544
2023-05-06T07:19:15.000Z,5068
2023-05-06T07:20:32.000Z,5224
2023-05-06T07:21:48.144Z,5736
2023-05-06T07:23:04.000Z,6512
2023-05-06T07:24:20.000Z,5648
2023-05-06T07:25:36.000Z,9428
2023-05-06T07:26:52.935Z,7168
2023-05-06T07:28:09.000Z,5864
2023-05-06T07:29:25.000Z,6480
2023-05-06T07:30:41.000Z,6312
2023-05-06T07:31:57.000Z,8592
2023-05-06T07:33:13.000Z,7816
2023-05-06T07:34:30.000Z,8472
2023-05-06T07:35:45.000Z,10024
2023-05-06T07:37:01.000Z,9372
2023-05-06T07:38:17.000Z,12308
2023-05-06T07:39:33.000Z,9556
2023-05-06T07:40:50.000Z,9896
2023-05-06T07:42:06.000Z,10796
2023-05-06T07:43:22.000Z,11384
2023-05-06T07:44:38.000Z,10424
2023-05-06T07:45:54.000Z,12332
2023-05-06T07:47:11.000Z,14004
2023-05-06T07:48:27.000Z,21088
2023-05-06T07:49:43.000Z,17728
2023-05-06T07:50:59.000Z,17600
2023-05-06T07:52:14.000Z,27392
2023-05-06T07:53:31.000Z,20448
2023-05-06T07:54:47.000Z,23840
2023-05-06T07:56:03.000Z,26112
2023-05-06T07:57:19.000Z,30208
2023-05-06T07:58:35.000Z,39360
2023-05-06T07:59:52.000Z,31296
2023-05-06T08:01:08.000Z,20256
2023-05-06T08:02:24.000Z,27424
2023-05-06T08:03:40.000Z,26624
2023-05-06T08:04:56.000Z,42336
2023-05-06T08:06:13.000Z,34784
2023-05-06T08:07:29.000Z,66304
2023-05-06T08:08:44.000Z,67520
2023-05-06T08:10:00.000Z,44192
2023-05-06T08:11:16.000Z,60320
2023-05-06T08:12:33.000Z,22688
2023-05-06T08:13:49.000Z,14840
2023-05-06T08:15:05.000Z,15560
2023-05-06T08:16:21.000Z,17324
2023-05-06T08:17:37.000Z,19584
2023-05-06T08:18:54.000Z,19424
2023-05-06T08:20:10.000Z,15012
2023-05-06T08:21:26.000Z,15204
2023-05-06T08:22:42.000Z,16896
2023-05-06T08:23:58.000Z,24096
2023-05-06T08:25:14.000Z,24992
2023-05-06T08:26:30.000Z,41056
2023-05-06T08:27:46.000Z,18784
2023-05-06T08:29:02.000Z,18144
2023-05-06T08:30:18.000Z,38368
2023-05-06T08:31:35.000Z,24448
2023-05-06T08:32:51.000Z,38144
2023-05-06T08:34:07.000Z,32768
2023-05-06T08:35:23.000Z,24192
2023-05-06T08:36:39.000Z,16132
2023-05-06T08:37:56.000Z,17920
2023-05-06T08:39:12.000Z,22624
2023-05-06T08:40:28.000Z,23104
2023-05-06T08:41:43.000Z,24480
2023-05-06T08:42:59.000Z,24384
2023-05-06T08:44:16.000Z,23872
2023-05-06T08:45:32.000Z,22816
2023-05-06T08:46:48.000Z,25440
2023-05-06T08:48:04.000Z,25632
2023-05-06T08:49:20.000Z,26912
2023-05-06T08:50:36.000Z,26528
2023-05-06T08:51:53.000Z,22048
2023-05-06T08:53:09.000Z,24736
2023-05-06T08:54:25.000Z,24928
2023-05-06T08:55:41.691Z,25120
2023-05-06T08:56:57.000Z,24864
2023-05-06T08:58:13.000Z,22912
2023-05-06T08:59:29.000Z,22016
2023-05-06T09:00:45.000Z,24128
2023-05-06T09:02:01.000Z,23968
2023-05-06T09:03:17.900Z,24800
2023-05-06T09:04:34.000Z,22176
2023-05-06T09:05:50.000Z,20480
2023-05-06T09:07:06.000Z,19200
2023-05-06T09:08:22.000Z,21184
2023-05-06T09:09:38.000Z,21248
2023-05-06T09:10:55.000Z,20640
2023-05-06T09:12:11.000Z,21504
2023-05-06T09:13:27.000Z,22272
2023-05-06T09:14:42.000Z,22464
2023-05-06T09:15:58.000Z,21856
2023-05-06T09:17:15.000Z,20768
2023-05-06T09:18:31.253Z,18976
2023-05-06T09:19:47.000Z,15876
2023-05-06T09:21:03.000Z,14396
2023-05-06T09:22:19.000Z,15520
2023-05-06T09:23:36.000Z,17952
2023-05-06T09:24:52.234Z,18240
2023-05-06T09:26:08.000Z,19936
2023-05-06T09:27:24.000Z,20000
2023-05-06T09:28:40.000Z,19232
2023-05-06T09:29:57.000Z,19200
2023-05-06T09:31:12.000Z,18180
2023-05-06T09:32:28.000Z,16964
2023-05-06T09:33:44.608Z,16696
2023-05-06T09:35:00.000Z,17076
2023-05-06T09:36:17.000Z,17800
2023-05-06T09:37:33.000Z,17260
2023-05-06T09:38:49.000Z,15888
2023-05-06T09:40:05.000Z,17376
2023-05-06T09:41:21.000Z,17704
2023-05-06T09:42:38.000Z,17500
2023-05-06T09:43:54.000Z,17712
2023-05-06T09:45:10.000Z,17076
2023-05-06T09:46:26.000Z,16784
2023-05-06T09:47:41.000Z,17224
2023-05-06T09:48:58.000Z,17284
2023-05-06T09:50:14.000Z,15996
2023-05-06T09:51:30.000Z,16052
2023-05-06T09:52:46.000Z,16112
2023-05-06T09:54:02.000Z,16328
2023-05-06T09:55:18.000Z,16064
2023-05-06T09:56:35.000Z,16348
2023-05-06T09:57:51.000Z,15396
2023-05-06T09:59:07.000Z,14592
2023-05-06T10:00:23.000Z,14292
2023-05-06T10:01:39.000Z,13928
2023-05-06T10:02:56.000Z,14932
2023-05-06T10:04:11.000Z,14912
2023-05-06T10:05:27.000Z,14248
2023-05-06T10:06:43.000Z,13984
2023-05-06T10:07:59.872Z,14384
2023-05-06T10:09:16.000Z,14248
2023-05-06T10:10:32.000Z,14208
2023-05-06T10:13:04.000Z,12988
2023-05-06T10:14:20.000Z,13540
2023-05-06T10:15:37.000Z,13464
2023-05-06T10:16:53.000Z,13476
2023-05-06T10:18:09.000Z,13544
2023-05-06T10:19:25.000Z,13528
2023-05-06T10:20:40.000Z,12676
2023-05-06T10:21:57.000Z,12368
2023-05-06T10:23:13.000Z,12160
2023-05-06T10:24:29.454Z,11756
2023-05-06T10:25:45.000Z,11448
2023-05-06T10:27:01.000Z,11600
2023-05-06T10:28:18.000Z,11920
2023-05-06T10:29:34.000Z,11964
2023-05-06T10:30:50.000Z,12056
2023-05-06T10:32:06.000Z,11948
2023-05-06T10:33:22.000Z,11716
2023-05-06T10:34:39.000Z,11600
2023-05-06T10:35:55.000Z,11384
2023-05-06T10:37:10.000Z,11028
2023-05-06T10:38:26.000Z,10596
2023-05-06T10:39:42.000Z,10812
2023-05-06T10:40:59.000Z,10784
2023-05-06T10:42:15.000Z,10620
2023-05-06T10:43:31.000Z,10416
2023-05-06T10:44:47.000Z,10248
2023-05-06T10:46:03.000Z,10216
2023-05-06T10:47:19.000Z,10064
2023-05-06T10:48:36.000Z,9968
2023-05-06T10:49:52.000Z,9912
2023-05-06T10:51:08.000Z,9556
2023-05-06T10:52:24.000Z,9592
2023-05-06T10:53:39.000Z,9516
2023-05-06T10:54:56.000Z,9356
2023-05-06T10:56:12.000Z,9200
2023-05-06T10:57:28.000Z,8680
2023-05-06T10:58:44.000Z,9068
2023-05-06T11:00:00.000Z,8928
2023-05-06T11:01:17.000Z,8924
2023-05-06T11:02:33.000Z,8704
2023-05-06T11:03:49.000Z,8412
2023-05-06T11:05:05.000Z,7840
2023-05-06T11:06:21.000Z,7652
2023-05-06T11:07:38.000Z,7668
2023-05-06T11:08:54.000Z,7904
2023-05-06T11:10:09.000Z,8176
2023-05-06T11:11:25.000Z,8448
2023-05-06T11:12:41.000Z,8640
2023-05-06T11:13:58.000Z,8740
2023-05-06T11:15:14.000Z,8740
2023-05-06T11:16:30.000Z,8800
2023-05-06T11:17:45.000Z,8736
2023-05-06T11:19:01.000Z,8904
2023-05-06T11:20:18.000Z,8580
2023-05-06T11:21:34.000Z,8392
2023-05-06T11:22:50.000Z,8084
2023-05-06T11:24:06.000Z,8184
2023-05-06T11:25:22.000Z,8080
2023-05-06T11:26:39.000Z,8180
2023-05-06T11:27:55.182Z,7948
2023-05-06T11:29:11.000Z,6988
2023-05-06T11:30:27.000Z,7000
2023-05-06T11:31:43.000Z,7188
2023-05-06T11:32:59.000Z,7372
2023-05-06T11:34:15.000Z,7676
2023-05-06T11:35:31.000Z,8580
2023-05-06T11:36:47.000Z,8612
2023-05-06T11:38:03.000Z,7440
2023-05-06T11:39:19.944Z,7376
2023-05-06T11:40:36.000Z,7748
2023-05-06T11:41:52.000Z,7280
2023-05-06T11:43:08.000Z,7776
2023-05-06T11:44:24.000Z,7984
2023-05-06T11:45:40.000Z,8036
2023-05-06T11:46:57.000Z,7300
2023-05-06T11:48:13.000Z,7516
2023-05-06T11:49:29.000Z,7828
2023-05-06T11:50:44.000Z,8396
2023-05-06T11:52:00.000Z,8656
2023-05-06T11:53:17.000Z,7848
2023-05-06T11:54:33.268Z,8384
2023-05-06T11:55:49.000Z,7556
2023-05-06T11:57:05.000Z,8152
2023-05-06T11:58:21.000Z,7220
2023-05-06T11:59:38.000Z,7008
2023-05-06T12:00:54.000Z,7128
2023-05-06T12:02:10.000Z,7580
2023-05-06T12:03:26.000Z,7612
2023-05-06T12:04:42.000Z,7040
2023-05-06T12:05:59.015Z,7104
2023-05-06T12:07:14.000Z,7488
2023-05-06T12:08:30.000Z,8488
2023-05-06T12:09:46.000Z,8680
2023-05-06T12:11:02.805Z,7936
2023-05-06T12:12:19.000Z,7832
2023-05-06T12:13:35.000Z,8548
2023-05-06T12:14:51.000Z,8708
2023-05-06T12:16:07.000Z,8668
2023-05-06T12:17:23.000Z,7824
2023-05-06T12:18:39.000Z,7324
2023-05-06T12:19:56.000Z,7088
2023-05-06T12:21:12.000Z,7068
2023-05-06T12:22:28.000Z,6964
2023-05-06T12:23:43.000Z,6896
2023-05-06T12:24:59.000Z,6684
2023-05-06T12:26:16.000Z,7156
2023-05-06T12:27:32.000Z,7392
2023-05-06T12:28:48.000Z,7792
2023-05-06T12:30:04.000Z,7904
2023-05-06T12:31:20.000Z,7476
2023-05-06T12:32:37.000Z,7720
2023-05-06T12:33:53.000Z,8048
2023-05-06T12:35:09.000Z,8068
2023-05-06T12:36:25.000Z,7932
2023-05-06T12:37:41.000Z,7328
2023-05-06T12:38:58.000Z,7496
2023-05-06T12:40:13.000Z,7508
2023-05-06T12:41:29.000Z,7928
2023-05-06T12:42:45.000Z,7684
2023-05-06T12:44:01.865Z,7580
2023-05-06T12:45:18.000Z,7436
2023-05-06T12:46:34.000Z,7256
2023-05-06T12:47:50.000Z,7056
2023-05-06T12:49:06.000Z,7400
2023-05-06T12:50:22.000Z,7620
2023-05-06T12:51:39.000Z,7784
2023-05-06T12:52:55.000Z,7872
2023-05-06T12:54:11.000Z,7960
2023-05-06T12:55:27.000Z,8052
2023-05-06T12:56:42.000Z,7928
2023-05-06T12:57:59.000Z,8128
2023-05-06T12:59:15.000Z,8220
2023-05-06T13:00:31.000Z,8356
2023-05-06T13:01:47.000Z,8396
2023-05-06T13:03:03.000Z,8300
2023-05-06T13:04:20.000Z,8180
2023-05-06T13:05:36.000Z,8148
2023-05-06T13:06:52.000Z,7752
2023-05-06T13:08:08.000Z,7752
2023-05-06T13:09:24.000Z,7836
2023-05-06T13:10:40.000Z,7860
2023-05-06T13:11:57.000Z,7640
2023-05-06T13:13:12.000Z,7504
2023-05-06T13:14:28.000Z,7392
2023-05-06T13:15:44.000Z,7360
2023-05-06T13:17:00.000Z,7356
2023-05-06T13:18:17.000Z,7316
2023-05-06T13:19:33.000Z,7280
2023-05-06T13:20:49.000Z,7484
2023-05-06T13:22:05.684Z,7828
2023-05-06T13:23:21.000Z,7964
2023-05-06T13:24:38.000Z,8000
2023-05-06T13:25:54.000Z,7984
2023-05-06T13:27:10.000Z,8036
2023-05-06T13:28:26.000Z,8032
2023-05-06T13:29:41.000Z,8080
2023-05-06T13:30:58.000Z,8024
2023-05-06T13:32:14.000Z,7964
2023-05-06T13:33:30.000Z,7792
2023-05-06T13:34:46.000Z,7712
2023-05-06T13:36:02.000Z,7516
2023-05-06T13:37:19.000Z,7480
2023-05-06T13:38:35.000Z,7456
2023-05-06T13:39:51.000Z,7408
2023-05-06T13:41:07.000Z,7340
2023-05-06T13:42:23.000Z,7308
2023-05-06T13:43:40.000Z,7316
2023-05-06T13:44:56.000Z,7512
2023-05-06T13:46:11.000Z,7684
2023-05-06T13:47:27.000Z,7816
2023-05-06T13:48:43.000Z,7812
2023-05-06T13:50:00.000Z,7780
2023-05-06T13:51:16.000Z,7524
2023-05-06T13:52:32.000Z,7240
2023-05-06T13:53:48.000Z,7264
2023-05-06T13:55:04.000Z,6980
2023-05-06T13:56:20.000Z,6956
2023-05-06T13:57:37.000Z,7196
2023-05-06T13:58:53.000Z,6636
2023-05-06T14:00:09.000Z,6636
2023-05-06T14:01:25.000Z,6560
2023-05-06T14:02:40.000Z,6524
2023-05-06T14:03:57.000Z,6504
2023-05-06T14:05:13.000Z,6900
2023-05-06T14:06:29.000Z,6964
2023-05-06T14:07:45.000Z,6948
2023-05-06T14:09:01.000Z,6784
2023-05-06T14:10:18.000Z,6560
2023-05-06T14:11:34.000Z,6252
2023-05-06T14:12:50.000Z,6032
2023-05-06T14:14:06.000Z,6020
2023-05-06T14:15:22.901Z,6036
2023-05-06T14:16:39.000Z,6164
2023-05-06T14:17:55.000Z,6360
2023-05-06T14:19:10.000Z,6668
2023-05-06T14:20:26.000Z,6888
2023-05-06T14:21:42.000Z,6840
2023-05-06T14:22:59.000Z,6900
2023-05-06T14:24:15.000Z,6916
2023-05-06T14:25:31.000Z,6232
2023-05-06T14:26:47.000Z,6444
2023-05-06T14:28:03.000Z,6988
2023-05-06T14:29:20.000Z,6368
2023-05-06T14:30:36.000Z,5852
2023-05-06T14:31:52.000Z,5664
2023-05-06T14:33:08.000Z,5560
2023-05-06T14:34:24.000Z,5444
2023-05-06T14:35:40.000Z,5280
2023-05-06T14:36:56.000Z,5220
2023-05-06T14:38:12.000Z,5252
2023-05-06T14:39:28.000Z,5344
2023-05-06T14:40:44.000Z,5696
2023-05-06T14:42:00.000Z,6080
2023-05-06T14:43:17.000Z,5976
2023-05-06T14:44:33.000Z,5668
2023-05-06T14:45:49.000Z,5616
2023-05-06T14:47:05.000Z,4776
2023-05-06T14:48:21.000Z,4896
2023-05-06T14:49:38.000Z,4484
2023-05-06T14:50:54.000Z,4388
2023-05-06T14:52:09.000Z,4308
2023-05-06T14:53:25.000Z,4288
2023-05-06T14:54:41.000Z,4300
2023-05-06T14:55:58.000Z,4292
2023-05-06T14:57:14.000Z,4256
2023-05-06T14:58:30.000Z,4212
2023-05-06T14:59:46.000Z,4216
2023-05-06T15:01:02.000Z,4284
2023-05-06T15:02:19.000Z,4572
2023-05-06T15:03:35.245Z,4524
2023-05-06T15:04:51.000Z,4356
2023-05-06T15:06:07.000Z,4352
2023-05-06T15:07:23.000Z,4316
2023-05-06T15:08:39.000Z,4540
2023-05-06T15:09:55.000Z,4576
2023-05-06T15:11:11.000Z,4624
2023-05-06T15:12:27.000Z,4496
2023-05-06T15:13:43.000Z,4428
2023-05-06T15:15:00.000Z,4460
2023-05-06T15:16:16.000Z,4460
2023-05-06T15:17:32.000Z,4456
2023-05-06T15:18:48.000Z,4444
2023-05-06T15:20:04.000Z,4492
2023-05-06T15:21:21.000Z,4588
2023-05-06T15:22:37.000Z,4656
2023-05-06T15:23:53.000Z,4644
2023-05-06T15:25:08.000Z,4680
2023-05-06T15:26:24.000Z,4728
2023-05-06T15:27:41.000Z,4724
2023-05-06T15:28:57.000Z,4644
2023-05-06T15:30:13.000Z,4548
2023-05-06T15:31:29.000Z,4496
2023-05-06T15:32:44.751Z,4460
2023-05-06T15:34:00.000Z,4436
2023-05-06T15:35:17.000Z,4468
2023-05-06T15:36:33.000Z,4532
2023-05-06T15:37:49.000Z,4600
2023-05-06T15:39:05.000Z,4636
2023-05-06T15:40:21.910Z,4660
2023-05-06T15:41:38.000Z,4716
2023-05-06T15:42:54.000Z,4844
2023-05-06T15:44:10.000Z,5372
2023-05-06T15:45:26.000Z,6260
2023-05-06T15:46:42.000Z,6296
2023-05-06T15:47:59.000Z,5148
2023-05-06T15:49:14.000Z,5184
2023-05-06T15:50:30.000Z,5120
2023-05-06T15:51:46.000Z,5024
2023-05-06T15:53:02.000Z,4908
2023-05-06T15:54:19.000Z,4940
2023-05-06T15:55:35.000Z,4912
2023-05-06T15:56:51.000Z,4668
2023-05-06T15:58:07.000Z,4280
2023-05-06T15:59:23.000Z,4156
2023-05-06T16:00:40.000Z,4040
2023-05-06T16:01:56.000Z,4004
2023-05-06T16:03:12.000Z,3900
2023-05-06T16:04:28.000Z,3812
2023-05-06T16:05:43.000Z,3760
2023-05-06T16:07:00.000Z,3740
2023-05-06T16:08:16.000Z,3736
2023-05-06T16:09:32.000Z,3756
2023-05-06T16:10:48.000Z,3856
2023-05-06T16:12:04.000Z,3752
2023-05-06T16:13:21.000Z,3732
2023-05-06T16:14:37.000Z,3720
2023-05-06T16:15:53.000Z,3696
2023-05-06T16:17:09.000Z,3656
2023-05-06T16:18:25.000Z,3600
2023-05-06T16:19:41.963Z,3540
2023-05-06T16:20:58.000Z,3492
2023-05-06T16:22:13.000Z,3448
2023-05-06T16:23:29.000Z,3420
2023-05-06T16:24:45.000Z,3412
2023-05-06T16:26:01.000Z,3404
2023-05-06T16:27:18.000Z,3392
2023-05-06T16:28:34.000Z,3380
2023-05-06T16:29:50.000Z,3356
2023-05-06T16:31:06.000Z,3324
2023-05-06T16:32:22.000Z,3312
2023-05-06T16:33:39.000Z,3316
2023-05-06T16:34:55.000Z,3320
2023-05-06T16:36:11.000Z,3308
2023-05-06T16:37:27.000Z,3308
2023-05-06T16:38:42.000Z,3340
2023-05-06T16:39:59.000Z,3304
2023-05-06T16:41:15.000Z,3268
2023-05-06T16:42:31.000Z,3196
2023-05-06T16:43:47.000Z,3108
2023-05-06T16:45:03.000Z,3068
2023-05-06T16:46:20.000Z,3016
2023-05-06T16:47:36.000Z,2936
2023-05-06T16:48:52.000Z,2840
2023-05-06T16:50:08.000Z,2772
2023-05-06T16:51:24.000Z,2712
2023-05-06T16:52:41.000Z,2656
2023-05-06T16:53:57.000Z,2604
2023-05-06T16:55:12.000Z,2552
2023-05-06T16:56:28.000Z,2496
2023-05-06T16:57:44.000Z,2448
2023-05-06T16:59:01.000Z,2404
2023-05-06T17:00:17.184Z,2356
2023-05-06T17:01:33.000Z,2312
2023-05-06T17:02:49.000Z,2276
2023-05-06T17:04:05.000Z,2236
2023-05-06T17:05:21.000Z,2188
2023-05-06T17:06:38.000Z,2144
2023-05-06T17:07:54.000Z,2104
2023-05-06T17:09:10.000Z,2068
2023-05-06T17:10:26.735Z,2028
2023-05-06T17:11:41.000Z,1992
2023-05-06T17:12:58.000Z,1952